sensor_id;sensor_type;location;lat;lon;timestamp;pressure;altitude;pressure_sealevel;temperature;humidity
56330;BME280;42236;48.058;10.632;2023-02-05T00:02:08;96517.09;;;1.06;85.95
56330;BME280;42236;48.058;10.632;2023-02-05T00:04:54;96507.28;;;1.06;85.83
56330;BME280;42236;48.058;10.632;2023-02-05T00:07:39;96504.84;;;1.05;85.46
56330;BME280;42236;48.058;10.632;2023-02-05T00:10:25;96493.88;;;1.01;85.69
56330;BME280;42236;48.058;10.632;2023-02-05T00:13:11;96499.91;;;0.97;85.70
56330;BME280;42236;48.058;10.632;2023-02-05T00:15:56;96491.25;;;0.90;85.96
56330;BME280;42236;48.058;10.632;2023-02-05T00:18:42;96489.75;;;0.82;86.12
56330;BME280;42236;48.058;10.632;2023-02-05T00:21:28;96493.09;;;0.77;86.59
56330;BME280;42236;48.058;10.632;2023-02-05T00:24:14;96480.84;;;0.76;86.34
56330;BME280;42236;48.058;10.632;2023-02-05T00:26:59;96486.66;;;0.73;86.22
56330;BME280;42236;48.058;10.632;2023-02-05T00:29:45;96487.22;;;0.63;86.20
56330;BME280;42236;48.058;10.632;2023-02-05T00:32:31;96491.16;;;0.49;86.65
56330;BME280;42236;48.058;10.632;2023-02-05T00:35:16;96493.44;;;0.46;86.90
56330;BME280;42236;48.058;10.632;2023-02-05T00:38:02;96492.31;;;0.41;87.09
56330;BME280;42236;48.058;10.632;2023-02-05T00:40:48;96489.06;;;0.39;87.04
56330;BME280;42236;48.058;10.632;2023-02-05T00:43:33;96493.31;;;0.40;87.30
56330;BME280;42236;48.058;10.632;2023-02-05T00:46:19;96490.66;;;0.40;87.43
56330;BME280;42236;48.058;10.632;2023-02-05T00:49:05;96479.84;;;0.42;87.22
56330;BME280;42236;48.058;10.632;2023-02-05T00:51:50;96485.34;;;0.40;87.17
56330;BME280;42236;48.058;10.632;2023-02-05T00:54:36;96488.47;;;0.37;87.03
56330;BME280;42236;48.058;10.632;2023-02-05T00:57:22;96489.16;;;0.33;86.96
56330;BME280;42236;48.058;10.632;2023-02-05T01:00:09;96491.50;;;0.29;87.14
56330;BME280;42236;48.058;10.632;2023-02-05T01:02:55;96487.66;;;0.25;87.45
56330;BME280;42236;48.058;10.632;2023-02-05T01:05:41;96487.09;;;0.23;87.66
56330;BME280;42236;48.058;10.632;2023-02-05T01:08:27;96483.84;;;0.21;87.58
56330;BME280;42236;48.058;10.632;2023-02-05T01:11:13;96482.66;;;0.17;87.72
56330;BME280;42236;48.058;10.632;2023-02-05T01:13:59;96479.91;;;0.12;87.85
56330;BME280;42236;48.058;10.632;2023-02-05T01:16:45;96478.97;;;0.06;87.88
56330;BME280;42236;48.058;10.632;2023-02-05T01:19:32;96479.19;;;0.05;88.06
56330;BME280;42236;48.058;10.632;2023-02-05T01:22:18;96473.53;;;0.01;87.69
56330;BME280;42236;48.058;10.632;2023-02-05T01:25:04;96470.41;;;-0.08;87.41
56330;BME280;42236;48.058;10.632;2023-02-05T01:27:50;96475.00;;;-0.15;87.31
56330;BME280;42236;48.058;10.632;2023-02-05T01:30:36;96459.41;;;-0.23;87.56
56330;BME280;42236;48.058;10.632;2023-02-05T01:33:21;96462.75;;;-0.28;87.87
56330;BME280;42236;48.058;10.632;2023-02-05T01:36:07;96465.88;;;-0.31;88.13
56330;BME280;42236;48.058;10.632;2023-02-05T01:38:53;96470.38;;;-0.31;87.99
56330;BME280;42236;48.058;10.632;2023-02-05T01:41:39;96477.94;;;-0.35;87.94
56330;BME280;42236;48.058;10.632;2023-02-05T01:44:30;96475.75;;;-0.38;87.97
56330;BME280;42236;48.058;10.632;2023-02-05T01:47:15;96466.63;;;-0.42;87.79
56330;BME280;42236;48.058;10.632;2023-02-05T01:50:02;96475.69;;;-0.50;87.82
56330;BME280;42236;48.058;10.632;2023-02-05T01:52:48;96469.09;;;-0.59;88.32
56330;BME280;42236;48.058;10.632;2023-02-05T01:55:39;96468.75;;;-0.62;88.52
56330;BME280;42236;48.058;10.632;2023-02-05T01:58:36;96459.41;;;-0.65;88.51
56330;BME280;42236;48.058;10.632;2023-02-05T02:01:25;96455.56;;;-0.69;88.29
56330;BME280;42236;48.058;10.632;2023-02-05T02:04:15;96452.78;;;-0.74;88.35
56330;BME280;42236;48.058;10.632;2023-02-05T02:07:03;96455.91;;;-0.77;88.84
56330;BME280;42236;48.058;10.632;2023-02-05T02:09:51;96455.72;;;-0.82;88.45
56330;BME280;42236;48.058;10.632;2023-02-05T02:12:40;96447.06;;;-0.90;89.11
56330;BME280;42236;48.058;10.632;2023-02-05T02:15:28;96446.91;;;-0.95;89.28
56330;BME280;42236;48.058;10.632;2023-02-05T02:18:14;96446.78;;;-1.00;89.45
56330;BME280;42236;48.058;10.632;2023-02-05T02:22:00;96443.78;;;-1.03;88.98
56330;BME280;42236;48.058;10.632;2023-02-05T02:33:35;96448.72;;;-1.25;91.03
56330;BME280;42236;48.058;10.632;2023-02-05T02:36:29;96442.25;;;-1.30;91.13
56330;BME280;42236;48.058;10.632;2023-02-05T02:39:22;96435.31;;;-1.31;90.99
56330;BME280;42236;48.058;10.632;2023-02-05T02:42:22;96433.09;;;-1.34;91.18
56330;BME280;42236;48.058;10.632;2023-02-05T02:45:12;96426.06;;;-1.40;90.57
56330;BME280;42236;48.058;10.632;2023-02-05T02:47:59;96433.84;;;-1.45;91.27
56330;BME280;42236;48.058;10.632;2023-02-05T02:50:47;96431.47;;;-1.53;92.10
56330;BME280;42236;48.058;10.632;2023-02-05T02:53:38;96426.19;;;-1.53;92.57
56330;BME280;42236;48.058;10.632;2023-02-05T02:56:26;96427.81;;;-1.52;91.50
56330;BME280;42236;48.058;10.632;2023-02-05T02:59:16;96419.28;;;-1.54;91.19
56330;BME280;42236;48.058;10.632;2023-02-05T03:02:04;96420.16;;;-1.60;91.69
56330;BME280;42236;48.058;10.632;2023-02-05T03:04:55;96413.97;;;-1.73;93.43
56330;BME280;42236;48.058;10.632;2023-02-05T03:07:47;96410.63;;;-1.86;95.22
56330;BME280;42236;48.058;10.632;2023-02-05T03:13:25;96394.00;;;-1.94;96.98
56330;BME280;42236;48.058;10.632;2023-02-05T03:16:13;96391.16;;;-1.92;98.26
56330;BME280;42236;48.058;10.632;2023-02-05T03:19:00;96386.69;;;-1.91;99.64
56330;BME280;42236;48.058;10.632;2023-02-05T03:21:53;96388.06;;;-1.89;99.23
56330;BME280;42236;48.058;10.632;2023-02-05T03:24:39;96380.72;;;-1.87;99.49
56330;BME280;42236;48.058;10.632;2023-02-05T03:27:24;96382.38;;;-1.86;98.58
56330;BME280;42236;48.058;10.632;2023-02-05T03:30:10;96380.09;;;-1.82;98.58
56330;BME280;42236;48.058;10.632;2023-02-05T03:33:15;96387.38;;;-1.78;98.48
56330;BME280;42236;48.058;10.632;2023-02-05T03:36:16;96379.56;;;-1.73;97.35
56330;BME280;42236;48.058;10.632;2023-02-05T03:39:42;96390.09;;;-1.66;96.86
56330;BME280;42236;48.058;10.632;2023-02-05T03:42:35;96387.22;;;-1.64;96.88
56330;BME280;42236;48.058;10.632;2023-02-05T03:45:32;96384.81;;;-1.66;96.40
56330;BME280;42236;48.058;10.632;2023-02-05T03:54:35;96395.00;;;-1.69;98.17
56330;BME280;42236;48.058;10.632;2023-02-05T03:57:27;96393.41;;;-1.70;97.54
56330;BME280;42236;48.058;10.632;2023-02-05T04:00:17;96387.72;;;-1.74;98.53
56330;BME280;42236;48.058;10.632;2023-02-05T04:03:03;96383.63;;;-1.70;97.72
56330;BME280;42236;48.058;10.632;2023-02-05T04:05:49;96386.06;;;-1.68;97.05
56330;BME280;42236;48.058;10.632;2023-02-05T04:08:35;96386.06;;;-1.68;97.64
56330;BME280;42236;48.058;10.632;2023-02-05T04:11:20;96393.75;;;-1.67;97.52
56330;BME280;42236;48.058;10.632;2023-02-05T04:14:06;96397.09;;;-1.72;97.62
56330;BME280;42236;48.058;10.632;2023-02-05T04:16:52;96389.56;;;-1.75;97.81
56330;BME280;42236;48.058;10.632;2023-02-05T04:19:37;96397.50;;;-1.75;97.76
56330;BME280;42236;48.058;10.632;2023-02-05T04:22:23;96388.09;;;-1.70;97.71
56330;BME280;42236;48.058;10.632;2023-02-05T04:25:09;96384.41;;;-1.69;97.36
56330;BME280;42236;48.058;10.632;2023-02-05T04:27:54;96377.53;;;-1.70;97.02
56330;BME280;42236;48.058;10.632;2023-02-05T04:30:40;96377.97;;;-1.74;97.19
56330;BME280;42236;48.058;10.632;2023-02-05T04:33:26;96372.44;;;-1.72;97.50
56330;BME280;42236;48.058;10.632;2023-02-05T04:36:11;96373.84;;;-1.69;97.37
56330;BME280;42236;48.058;10.632;2023-02-05T04:38:58;96370.19;;;-1.68;97.14
56330;BME280;42236;48.058;10.632;2023-02-05T04:41:44;96366.94;;;-1.70;96.91
56330;BME280;42236;48.058;10.632;2023-02-05T04:44:29;96364.66;;;-1.67;96.96
56330;BME280;42236;48.058;10.632;2023-02-05T04:47:15;96371.78;;;-1.67;97.57
56330;BME280;42236;48.058;10.632;2023-02-05T04:50:01;96369.28;;;-1.62;97.83
56330;BME280;42236;48.058;10.632;2023-02-05T04:52:46;96376.22;;;-1.61;98.02
56330;BME280;42236;48.058;10.632;2023-02-05T04:55:32;96376.63;;;-1.64;98.84
56330;BME280;42236;48.058;10.632;2023-02-05T04:58:18;96371.50;;;-1.59;98.71
56330;BME280;42236;48.058;10.632;2023-02-05T05:01:11;96368.41;;;-1.56;98.37
56330;BME280;42236;48.058;10.632;2023-02-05T05:03:57;96363.56;;;-1.59;99.59
56330;BME280;42236;48.058;10.632;2023-02-05T05:06:43;96357.44;;;-1.60;98.90
56330;BME280;42236;48.058;10.632;2023-02-05T05:09:28;96362.91;;;-1.55;99.18
56330;BME280;42236;48.058;10.632;2023-02-05T05:12:14;96354.28;;;-1.50;98.69
56330;BME280;42236;48.058;10.632;2023-02-05T05:15:00;96357.38;;;-1.53;98.85
56330;BME280;42236;48.058;10.632;2023-02-05T05:17:45;96354.16;;;-1.55;98.16
56330;BME280;42236;48.058;10.632;2023-02-05T05:20:31;96350.91;;;-1.57;98.71
56330;BME280;42236;48.058;10.632;2023-02-05T05:23:17;96347.91;;;-1.61;99.70
56330;BME280;42236;48.058;10.632;2023-02-05T05:26:04;96366.94;;;-1.70;100.00
56330;BME280;42236;48.058;10.632;2023-02-05T05:28:54;96366.03;;;-1.64;99.16
56330;BME280;42236;48.058;10.632;2023-02-05T05:31:41;96373.13;;;-1.58;99.17
56330;BME280;42236;48.058;10.632;2023-02-05T05:34:26;96361.06;;;-1.54;98.82
56330;BME280;42236;48.058;10.632;2023-02-05T05:37:12;96367.31;;;-1.48;97.99
56330;BME280;42236;48.058;10.632;2023-02-05T05:39:58;96360.16;;;-1.48;97.92
56330;BME280;42236;48.058;10.632;2023-02-05T05:43:02;96360.03;;;-1.53;98.37
56330;BME280;42236;48.058;10.632;2023-02-05T05:46:08;96366.63;;;-1.62;99.21
56330;BME280;42236;48.058;10.632;2023-02-05T05:48:56;96373.63;;;-1.68;98.83
56330;BME280;42236;48.058;10.632;2023-02-05T05:51:42;96379.72;;;-1.67;98.46
56330;BME280;42236;48.058;10.632;2023-02-05T05:54:27;96378.25;;;-1.63;98.36
56330;BME280;42236;48.058;10.632;2023-02-05T05:57:13;96378.25;;;-1.63;97.67
56330;BME280;42236;48.058;10.632;2023-02-05T05:59:59;96381.50;;;-1.61;97.35
56330;BME280;42236;48.058;10.632;2023-02-05T06:02:44;96373.56;;;-1.61;97.64
56330;BME280;42236;48.058;10.632;2023-02-05T06:05:31;96369.72;;;-1.65;97.54
56330;BME280;42236;48.058;10.632;2023-02-05T06:08:17;96366.13;;;-1.71;97.46
56330;BME280;42236;48.058;10.632;2023-02-05T06:11:03;96370.25;;;-1.75;97.46
56330;BME280;42236;48.058;10.632;2023-02-05T06:13:48;96377.38;;;-1.76;97.04
56330;BME280;42236;48.058;10.632;2023-02-05T06:16:34;96369.06;;;-1.79;97.07
56330;BME280;42236;48.058;10.632;2023-02-05T06:19:21;96378.03;;;-1.80;96.94
56330;BME280;42236;48.058;10.632;2023-02-05T06:22:06;96380.88;;;-1.82;96.58
56330;BME280;42236;48.058;10.632;2023-02-05T06:24:52;96397.34;;;-1.80;96.39
56330;BME280;42236;48.058;10.632;2023-02-05T06:27:38;96404.28;;;-1.79;96.13
56330;BME280;42236;48.058;10.632;2023-02-05T06:30:24;96400.00;;;-1.80;95.92
56330;BME280;42236;48.058;10.632;2023-02-05T06:33:10;96393.50;;;-1.84;96.05
56330;BME280;42236;48.058;10.632;2023-02-05T06:35:57;96394.75;;;-1.86;95.72
56330;BME280;42236;48.058;10.632;2023-02-05T06:38:42;96399.69;;;-1.90;95.42
56330;BME280;42236;48.058;10.632;2023-02-05T06:41:28;96387.47;;;-1.91;95.46
56330;BME280;42236;48.058;10.632;2023-02-05T06:44:13;96391.75;;;-1.90;95.52
56330;BME280;42236;48.058;10.632;2023-02-05T06:47:00;96386.47;;;-1.90;95.42
56330;BME280;42236;48.058;10.632;2023-02-05T06:49:46;96399.53;;;-1.95;95.47
56330;BME280;42236;48.058;10.632;2023-02-05T06:52:32;96413.16;;;-1.98;95.35
56330;BME280;42236;48.058;10.632;2023-02-05T06:55:18;96405.47;;;-2.00;94.87
56330;BME280;42236;48.058;10.632;2023-02-05T06:58:03;96406.72;;;-2.02;94.96
56330;BME280;42236;48.058;10.632;2023-02-05T07:00:49;96403.31;;;-2.09;94.84
56330;BME280;42236;48.058;10.632;2023-02-05T07:03:35;96412.25;;;-2.10;94.96
56330;BME280;42236;48.058;10.632;2023-02-05T07:06:21;96411.09;;;-2.15;95.09
56330;BME280;42236;48.058;10.632;2023-02-05T07:09:08;96398.28;;;-2.18;94.99
56330;BME280;42236;48.058;10.632;2023-02-05T07:11:54;96401.53;;;-2.16;94.86
56330;BME280;42236;48.058;10.632;2023-02-05T07:14:40;96396.25;;;-2.16;94.60
56330;BME280;42236;48.058;10.632;2023-02-05T07:17:26;96397.88;;;-2.15;94.36
56330;BME280;42236;48.058;10.632;2023-02-05T07:20:12;96381.88;;;-2.20;94.06
56330;BME280;42236;48.058;10.632;2023-02-05T07:22:58;96390.59;;;-2.19;94.23
56330;BME280;42236;48.058;10.632;2023-02-05T07:25:44;96389.78;;;-2.20;94.01
56330;BME280;42236;48.058;10.632;2023-02-05T07:28:30;96399.94;;;-2.17;94.20
56330;BME280;42236;48.058;10.632;2023-02-05T07:31:17;96391.34;;;-2.12;94.11
56330;BME280;42236;48.058;10.632;2023-02-05T07:34:03;96394.94;;;-2.06;94.17
56330;BME280;42236;48.058;10.632;2023-02-05T07:36:50;96396.34;;;-2.04;94.35
56330;BME280;42236;48.058;10.632;2023-02-05T07:39:35;96396.16;;;-2.02;94.53
56330;BME280;42236;48.058;10.632;2023-02-05T07:42:21;96398.50;;;-1.94;94.42
56330;BME280;42236;48.058;10.632;2023-02-05T07:45:07;96389.56;;;-1.93;94.64
56330;BME280;42236;48.058;10.632;2023-02-05T07:47:53;96399.25;;;-1.87;95.09
56330;BME280;42236;48.058;10.632;2023-02-05T07:50:42;96407.72;;;-1.78;94.50
56330;BME280;42236;48.058;10.632;2023-02-05T07:53:29;96408.03;;;-1.68;94.95
56330;BME280;42236;48.058;10.632;2023-02-05T07:56:15;96410.16;;;-1.58;94.88
56330;BME280;42236;48.058;10.632;2023-02-05T07:59:01;96409.88;;;-1.50;94.94
56330;BME280;42236;48.058;10.632;2023-02-05T08:01:47;96417.88;;;-1.38;94.69
56330;BME280;42236;48.058;10.632;2023-02-05T08:04:32;96410.47;;;-1.30;94.86
56330;BME280;42236;48.058;10.632;2023-02-05T08:07:18;96412.59;;;-1.20;94.63
56330;BME280;42236;48.058;10.632;2023-02-05T08:10:04;96413.66;;;-1.09;94.51
56330;BME280;42236;48.058;10.632;2023-02-05T08:12:50;96416.63;;;-0.99;94.78
56330;BME280;42236;48.058;10.632;2023-02-05T08:15:38;96414.84;;;-0.87;94.85
56330;BME280;42236;48.058;10.632;2023-02-05T08:18:24;96417.88;;;-0.71;94.91
56330;BME280;42236;48.058;10.632;2023-02-05T08:21:10;96413.44;;;-0.59;94.86
56330;BME280;42236;48.058;10.632;2023-02-05T08:23:56;96403.66;;;-0.47;95.10
56330;BME280;42236;48.058;10.632;2023-02-05T08:26:43;96396.22;;;-0.38;95.09
56330;BME280;42236;48.058;10.632;2023-02-05T08:29:28;96406.25;;;-0.28;95.18
56330;BME280;42236;48.058;10.632;2023-02-05T08:32:14;96387.72;;;-0.16;95.66
56330;BME280;42236;48.058;10.632;2023-02-05T08:34:59;96384.50;;;-0.07;95.33
56330;BME280;42236;48.058;10.632;2023-02-05T08:37:45;96384.16;;;0.02;95.39
56330;BME280;42236;48.058;10.632;2023-02-05T08:40:31;96379.06;;;0.12;95.01
56330;BME280;42236;48.058;10.632;2023-02-05T08:43:17;96372.38;;;0.21;95.04
56330;BME280;42236;48.058;10.632;2023-02-05T08:46:03;96363.72;;;0.26;95.22
56330;BME280;42236;48.058;10.632;2023-02-05T08:48:49;96356.66;;;0.31;95.25
56330;BME280;42236;48.058;10.632;2023-02-05T08:51:35;96353.31;;;0.36;95.36
56330;BME280;42236;48.058;10.632;2023-02-05T08:54:20;96342.59;;;0.42;95.16
56330;BME280;42236;48.058;10.632;2023-02-05T08:57:06;96337.94;;;0.50;95.24
56330;BME280;42236;48.058;10.632;2023-02-05T08:59:52;96330.09;;;0.55;95.85
56330;BME280;42236;48.058;10.632;2023-02-05T09:02:39;96337.72;;;0.63;96.88
56330;BME280;42236;48.058;10.632;2023-02-05T09:05:25;96332.59;;;0.73;96.44
56330;BME280;42236;48.058;10.632;2023-02-05T09:08:11;96336.00;;;0.85;96.26
56330;BME280;42236;48.058;10.632;2023-02-05T09:10:56;96340.22;;;0.98;95.56
56330;BME280;42236;48.058;10.632;2023-02-05T09:13:42;96333.34;;;1.14;95.08
56330;BME280;42236;48.058;10.632;2023-02-05T09:16:28;96334.69;;;1.28;94.88
56330;BME280;42236;48.058;10.632;2023-02-05T09:19:13;96326.38;;;1.42;94.70
56330;BME280;42236;48.058;10.632;2023-02-05T09:21:59;96331.63;;;1.54;94.27
56330;BME280;42236;48.058;10.632;2023-02-05T09:24:45;96338.97;;;1.63;93.73
56330;BME280;42236;48.058;10.632;2023-02-05T09:27:30;96334.88;;;1.73;92.81
56330;BME280;42236;48.058;10.632;2023-02-05T09:30:16;96325.44;;;1.82;92.66
56330;BME280;42236;48.058;10.632;2023-02-05T09:33:02;96325.50;;;1.87;92.68
56330;BME280;42236;48.058;10.632;2023-02-05T09:35:48;96321.63;;;1.95;92.12
56330;BME280;42236;48.058;10.632;2023-02-05T09:38:34;96312.41;;;2.02;92.35
56330;BME280;42236;48.058;10.632;2023-02-05T09:41:25;96316.63;;;2.15;92.19
56330;BME280;42236;48.058;10.632;2023-02-05T09:44:32;96304.22;;;2.26;91.73
56330;BME280;42236;48.058;10.632;2023-02-05T09:47:30;96308.16;;;2.40;92.10
56330;BME280;42236;48.058;10.632;2023-02-05T09:50:20;96305.03;;;2.48;91.53
56330;BME280;42236;48.058;10.632;2023-02-05T09:53:17;96306.97;;;2.53;90.78
56330;BME280;42236;48.058;10.632;2023-02-05T09:56:06;96295.34;;;2.59;91.21
56330;BME280;42236;48.058;10.632;2023-02-05T09:58:53;96283.19;;;2.68;90.79
56330;BME280;42236;48.058;10.632;2023-02-05T10:01:51;96276.66;;;2.81;89.99
56330;BME280;42236;48.058;10.632;2023-02-05T10:04:37;96268.81;;;2.96;90.56
56330;BME280;42236;48.058;10.632;2023-02-05T10:07:49;96258.25;;;3.07;88.77
56330;BME280;42236;48.058;10.632;2023-02-05T10:10:47;96252.19;;;3.16;88.23
56330;BME280;42236;48.058;10.632;2023-02-05T10:13:40;96240.25;;;3.19;87.44
56330;BME280;42236;48.058;10.632;2023-02-05T10:31:49;96220.75;;;3.51;85.89
56330;BME280;42236;48.058;10.632;2023-02-05T10:34:54;96217.84;;;3.57;85.77
56330;BME280;42236;48.058;10.632;2023-02-05T10:37:45;96213.06;;;3.59;84.60
56330;BME280;42236;48.058;10.632;2023-02-05T10:40:38;96209.34;;;3.60;85.19
56330;BME280;42236;48.058;10.632;2023-02-05T10:43:30;96200.28;;;3.61;84.87
56330;BME280;42236;48.058;10.632;2023-02-05T10:46:18;96204.03;;;3.66;85.65
56330;BME280;42236;48.058;10.632;2023-02-05T10:49:14;96201.63;;;3.64;84.74
56330;BME280;42236;48.058;10.632;2023-02-05T10:52:03;96200.56;;;3.65;85.30
56330;BME280;42236;48.058;10.632;2023-02-05T10:54:49;96192.03;;;3.63;85.08
56330;BME280;42236;48.058;10.632;2023-02-05T10:57:35;96193.81;;;3.57;83.26
56330;BME280;42236;48.058;10.632;2023-02-05T11:00:22;96187.91;;;3.50;83.68
56330;BME280;42236;48.058;10.632;2023-02-05T11:03:15;96191.09;;;3.47;82.85
56330;BME280;42236;48.058;10.632;2023-02-05T11:06:07;96190.06;;;3.48;83.66
56330;BME280;42236;48.058;10.632;2023-02-05T11:08:54;96188.41;;;3.42;82.86
56330;BME280;42236;48.058;10.632;2023-02-05T11:11:40;96183.59;;;3.39;83.30
56330;BME280;42236;48.058;10.632;2023-02-05T11:14:33;96188.13;;;3.38;83.27
56330;BME280;42236;48.058;10.632;2023-02-05T11:17:21;96194.47;;;3.32;83.37
56330;BME280;42236;48.058;10.632;2023-02-05T11:23:15;96180.84;;;3.29;82.67
56330;BME280;42236;48.058;10.632;2023-02-05T11:26:13;96178.44;;;3.27;82.38
56330;BME280;42236;48.058;10.632;2023-02-05T11:29:18;96181.09;;;3.27;81.26
56330;BME280;42236;48.058;10.632;2023-02-05T11:32:20;96169.34;;;3.28;80.91
56330;BME280;42236;48.058;10.632;2023-02-05T11:35:28;96175.00;;;3.32;82.92
56330;BME280;42236;48.058;10.632;2023-02-05T11:38:22;96185.94;;;3.35;83.34
56330;BME280;42236;48.058;10.632;2023-02-05T11:41:16;96180.63;;;3.35;83.26
56330;BME280;42236;48.058;10.632;2023-02-05T11:44:16;96190.47;;;3.35;82.99
56330;BME280;42236;48.058;10.632;2023-02-05T11:47:02;96182.72;;;3.33;83.77
56330;BME280;42236;48.058;10.632;2023-02-05T11:49:49;96188.63;;;3.35;83.78
56330;BME280;42236;48.058;10.632;2023-02-05T11:52:36;96182.78;;;3.38;83.62
56330;BME280;42236;48.058;10.632;2023-02-05T11:55:32;96172.88;;;3.34;81.79
56330;BME280;42236;48.058;10.632;2023-02-05T11:58:29;96177.69;;;3.37;82.76
56330;BME280;42236;48.058;10.632;2023-02-05T12:01:22;96181.47;;;3.41;82.49
56330;BME280;42236;48.058;10.632;2023-02-05T12:04:17;96173.22;;;3.48;81.96
56330;BME280;42236;48.058;10.632;2023-02-05T12:07:10;96177.25;;;3.50;81.36
56330;BME280;42236;48.058;10.632;2023-02-05T12:09:59;96182.34;;;3.57;82.18
56330;BME280;42236;48.058;10.632;2023-02-05T12:19:16;96166.81;;;3.44;80.57
56330;BME280;42236;48.058;10.632;2023-02-05T12:25:24;96158.84;;;3.49;79.89
56330;BME280;42236;48.058;10.632;2023-02-05T12:28:25;96151.69;;;3.59;80.80
56330;BME280;42236;48.058;10.632;2023-02-05T12:31:40;96155.22;;;3.70;80.16
56330;BME280;42236;48.058;10.632;2023-02-05T12:40:38;96151.72;;;3.64;77.13
56330;BME280;42236;48.058;10.632;2023-02-05T12:43:37;96148.78;;;3.66;79.28
56330;BME280;42236;48.058;10.632;2023-02-05T12:46:50;96148.28;;;3.69;76.94
56330;BME280;42236;48.058;10.632;2023-02-05T12:53:22;96133.91;;;3.75;78.01
56330;BME280;42236;48.058;10.632;2023-02-05T12:59:35;96131.25;;;3.80;79.56
56330;BME280;42236;48.058;10.632;2023-02-05T13:05:20;96129.59;;;3.69;76.22
56330;BME280;42236;48.058;10.632;2023-02-05T13:08:48;96125.88;;;3.70;75.68
56330;BME280;42236;48.058;10.632;2023-02-05T13:11:57;96126.69;;;3.76;77.41
56330;BME280;42236;48.058;10.632;2023-02-05T13:14:53;96128.53;;;3.70;77.68
56330;BME280;42236;48.058;10.632;2023-02-05T13:18:33;96124.75;;;3.61;77.02
56330;BME280;42236;48.058;10.632;2023-02-05T13:20:58;96119.13;;;3.57;77.50
56330;BME280;42236;48.058;10.632;2023-02-05T13:27:29;96115.00;;;3.34;79.52
56330;BME280;42236;48.058;10.632;2023-02-05T13:30:42;96112.97;;;3.09;79.62
56330;BME280;42236;48.058;10.632;2023-02-05T13:33:30;96123.88;;;3.03;81.20
56330;BME280;42236;48.058;10.632;2023-02-05T13:39:27;96111.09;;;2.72;81.07
56330;BME280;42236;48.058;10.632;2023-02-05T13:52:13;96108.75;;;2.49;83.39
56330;BME280;42236;48.058;10.632;2023-02-05T13:58:30;96106.97;;;2.27;85.96
56330;BME280;42236;48.058;10.632;2023-02-05T14:01:22;96113.00;;;2.18;86.47
56330;BME280;42236;48.058;10.632;2023-02-05T14:04:19;96108.34;;;2.08;87.82
56330;BME280;42236;48.058;10.632;2023-02-05T14:07:16;96103.72;;;1.98;88.19
56330;BME280;42236;48.058;10.632;2023-02-05T14:10:04;96099.94;;;1.94;88.95
56330;BME280;42236;48.058;10.632;2023-02-05T14:12:50;96096.16;;;1.90;88.83
56330;BME280;42236;48.058;10.632;2023-02-05T14:15:42;96095.94;;;1.91;89.16
56330;BME280;42236;48.058;10.632;2023-02-05T14:39:28;96100.81;;;2.27;89.19
56330;BME280;42236;48.058;10.632;2023-02-05T14:42:20;96103.41;;;2.22;89.15
56330;BME280;42236;48.058;10.632;2023-02-05T14:45:14;96097.63;;;2.25;89.58
56330;BME280;42236;48.058;10.632;2023-02-05T14:48:00;96105.59;;;2.25;90.06
56330;BME280;42236;48.058;10.632;2023-02-05T14:50:46;96110.94;;;2.25;89.84
56330;BME280;42236;48.058;10.632;2023-02-05T14:53:54;96097.06;;;2.23;90.06
56330;BME280;42236;48.058;10.632;2023-02-05T14:56:44;96098.66;;;2.24;89.63
56330;BME280;42236;48.058;10.632;2023-02-05T14:59:39;96096.50;;;2.21;90.10
56330;BME280;42236;48.058;10.632;2023-02-05T15:14:53;96092.47;;;1.91;92.02
56330;BME280;42236;48.058;10.632;2023-02-05T15:17:47;96079.66;;;1.88;92.29
56330;BME280;42236;48.058;10.632;2023-02-05T15:20:35;96077.72;;;1.83;92.62
56330;BME280;42236;48.058;10.632;2023-02-05T15:23:44;96075.56;;;1.80;92.74
56330;BME280;42236;48.058;10.632;2023-02-05T15:29:43;96079.47;;;1.73;93.60
56330;BME280;42236;48.058;10.632;2023-02-05T15:32:39;96080.47;;;1.66;94.04
56330;BME280;42236;48.058;10.632;2023-02-05T15:35:29;96072.97;;;1.63;93.27
56330;BME280;42236;48.058;10.632;2023-02-05T15:38:34;96075.03;;;1.56;94.16
56330;BME280;42236;48.058;10.632;2023-02-05T15:41:24;96077.63;;;1.51;94.71
56330;BME280;42236;48.058;10.632;2023-02-05T15:44:21;96077.34;;;1.47;95.21
56330;BME280;42236;48.058;10.632;2023-02-05T15:47:12;96068.53;;;1.47;95.12
56330;BME280;42236;48.058;10.632;2023-02-05T15:50:02;96070.63;;;1.45;94.67
56330;BME280;42236;48.058;10.632;2023-02-05T15:52:48;96066.88;;;1.41;94.71
56330;BME280;42236;48.058;10.632;2023-02-05T15:55:35;96067.38;;;1.38;95.13
56330;BME280;42236;48.058;10.632;2023-02-05T15:58:23;96075.25;;;1.33;95.16
56330;BME280;42236;48.058;10.632;2023-02-05T16:01:10;96069.13;;;1.32;95.68
56330;BME280;42236;48.058;10.632;2023-02-05T16:03:55;96068.00;;;1.28;95.78
56330;BME280;42236;48.058;10.632;2023-02-05T16:06:41;96077.84;;;1.27;95.74
56330;BME280;42236;48.058;10.632;2023-02-05T16:09:28;96076.25;;;1.26;95.48
56330;BME280;42236;48.058;10.632;2023-02-05T16:12:15;96078.56;;;1.23;95.37
56330;BME280;42236;48.058;10.632;2023-02-05T16:15:03;96081.75;;;1.20;95.94
56330;BME280;42236;48.058;10.632;2023-02-05T16:17:50;96086.19;;;1.14;96.22
56330;BME280;42236;48.058;10.632;2023-02-05T16:20:39;96083.19;;;1.11;96.78
56330;BME280;42236;48.058;10.632;2023-02-05T16:23:33;96077.09;;;1.10;97.43
56330;BME280;42236;48.058;10.632;2023-02-05T16:26:27;96074.91;;;1.07;97.61
56330;BME280;42236;48.058;10.632;2023-02-05T16:29:19;96074.34;;;1.05;97.41
56330;BME280;42236;48.058;10.632;2023-02-05T16:32:19;96084.66;;;1.01;98.41
56330;BME280;42236;48.058;10.632;2023-02-05T16:35:11;96072.44;;;1.00;98.24
56330;BME280;42236;48.058;10.632;2023-02-05T16:38:01;96079.59;;;1.00;98.21
56330;BME280;42236;48.058;10.632;2023-02-05T16:40:51;96075.09;;;1.00;98.22
56330;BME280;42236;48.058;10.632;2023-02-05T16:43:38;96082.81;;;1.02;98.18
56330;BME280;42236;48.058;10.632;2023-02-05T16:46:29;96082.25;;;1.00;98.82
56330;BME280;42236;48.058;10.632;2023-02-05T16:52:33;96091.75;;;0.96;99.91
56330;BME280;42236;48.058;10.632;2023-02-05T16:55:42;96092.81;;;0.95;99.58